TALO2: Illinois River, Tahlequah, OK

Data processed at Mon Sep 24 2018 22:02


All information presented herein is the property of the government of the United States of America and may be revised or deleted at any time without prior notice.
Dissemination of this information without the expressed written consent of the Public Affairs Office, Tulsa District U.S. Army Corps of Engineers is strictly prohibited.
These data are gathered electronically and, as presented, have not undergone any form of quality control. These data are not guaranteed to be valid or correct.
Go to home page.
Go to station list.
Go to home page.

Upstream stations:

Downstream station:
Previous Day
Next Day
Current Day
    
SHEF ID:       TALO2     Illinois River near Tahlequah, O
STATION TYPE:  

               PRECIP PRECIP(A)     STAGE  STAGE(2)  RIV-FLOW  BAT-LOAD
                   in        in        ft        ft       cfs      volt
              Ccp-Rev   Ccp-Rev   Ccp-Rev   Ccp-Rev   Ccp-Rev   Ccp-Rev
(US/Central)
09/24 00:00      0.00      ----      5.88      5.80       293     12.65
09/24 01:00      0.00      ----      5.93      5.85       312     12.65
09/24 02:00      0.00      ----      6.01      5.91       347     12.65
09/24 03:00      0.00      ----      6.09      6.01       397     12.65
09/24 04:00      0.00      ----      6.18      6.08       459     12.57
09/24 05:00      0.00      ----      6.22      6.13       488     12.57
09/24 06:00      0.00      ----      6.27      6.19       527     12.57
09/24 07:00      0.00      ----      6.29      6.22       543     12.57
09/24 08:00      0.00      ----      6.31      6.23       559     12.57
09/24 09:00      0.00      ----      6.33      6.25       576     12.57
09/24 10:00      0.00      ----      6.34      6.26       584     12.65
09/24 11:00      0.00      ----      6.33      6.26       576     12.73
09/24 12:00      0.00      ----      6.33      6.25       576     13.05
09/24 13:00      0.00      ----      6.34      6.26       584     13.13
09/24 14:00      0.00      ----      6.33      6.24       576     13.29
09/24 15:00      0.00      ----      6.32      6.25       567     13.29
09/24 16:00      0.00      ----      6.30      6.21       551     13.29
09/24 17:00      0.00      ----      6.30      6.21       551     13.05
09/24 18:00      0.00      ----      6.29      6.20       543     12.89
09/24 19:00      0.00      ----      6.28      6.19       535     12.73
09/24 20:00      0.00      ----      6.26      6.17       519     12.65
09/24 21:00      0.00      ----      6.25      6.17       511     12.65
09/24 22:00      ----      ----      ----      ----      ----      ----
09/24 23:00      ----      ----      ----      ----      ----      ----